Terminal Aerodrome Forecast
Issued by NWS Sterling, VA

Current Version | Previous Version | Text Only | Print | Product List | Glossary Off
Versions: 1 2 3 4 5 6 7 8 9 10 11 12 13 14 15 16 17 18 19 20 21

000
FTUS41 KLWX 092124 AAA
TAFIAD
TAF AMD
KIAD 092124Z 0921/1024 30016G27KT P6SM SCT045
     FM092200 30013G20KT P6SM FEW045
     FM100300 29008KT P6SM SCT150
     FM101500 29010G17KT P6SM SCT040=

USA.gov is the U.S. government's official web portal to all federal, state and local government web resources and services.